createdAt,value
2023-04-24T00:01:05.345Z,9.4
2023-04-24T00:06:59.276Z,9.7
2023-04-24T00:12:50.741Z,9.8
2023-04-24T00:18:42.246Z,9.8
2023-04-24T00:24:33.609Z,9
2023-04-24T00:30:24.466Z,8.2
2023-04-24T00:36:16.168Z,8.2
2023-04-24T00:42:07.635Z,8.4
2023-04-24T00:47:58.224Z,8.6
2023-04-24T00:53:49.231Z,8.6
2023-04-24T00:59:25.118Z,8.4
2023-04-24T01:05:18.443Z,8.5
2023-04-24T01:11:10.011Z,8.4
2023-04-24T01:17:01.771Z,8.4
2023-04-24T01:22:53.980Z,8.3
2023-04-24T01:28:45.361Z,7.9
2023-04-24T01:34:37.284Z,7.6
2023-04-24T01:40:13.599Z,7.4
2023-04-24T01:46:05.004Z,7.6
2023-04-24T01:51:57.216Z,7.3
2023-04-24T01:57:48.401Z,7.3
2023-04-24T02:03:41.657Z,7.2
2023-04-24T02:09:34.103Z,7
2023-04-24T02:15:25.211Z,6.9
2023-04-24T02:21:16.424Z,6.9
2023-04-24T02:26:52.294Z,6.9
2023-04-24T02:32:43.481Z,6.9
2023-04-24T02:38:34.719Z,7
2023-04-24T02:44:26.190Z,7.1
2023-04-24T02:50:18.220Z,7.1
2023-04-24T02:56:09.756Z,6.9
2023-04-24T03:02:01.698Z,6.8
2023-04-24T03:07:55.089Z,6.9
2023-04-24T03:13:46.220Z,6.8
2023-04-24T03:19:41.207Z,6.8
2023-04-24T03:25:33.127Z,6.9
2023-04-24T03:31:24.954Z,7
2023-04-24T03:37:16.973Z,7
2023-04-24T03:42:55.645Z,6.9
2023-04-24T03:48:47.294Z,6.9
2023-04-24T03:54:40.161Z,7.1
2023-04-24T04:00:31.677Z,7
2023-04-24T04:06:25.451Z,7.4
2023-04-24T04:12:16.961Z,7.6
2023-04-24T04:18:08.606Z,7.8
2023-04-24T04:23:59.806Z,7.9
2023-04-24T04:29:51.489Z,8
2023-04-24T04:35:43.295Z,8.3
2023-04-24T04:41:35.242Z,8.3
2023-04-24T04:47:26.998Z,8.3
2023-04-24T04:53:19.012Z,8.6
2023-04-24T04:59:11.001Z,8.7
2023-04-24T05:05:06.638Z,8.7
2023-04-24T05:11:05.141Z,8.8
2023-04-24T05:17:09.151Z,8.9
2023-04-24T05:23:00.791Z,8.9
2023-04-24T05:28:35.958Z,9.1
2023-04-24T05:34:13.036Z,9.4
2023-04-24T05:40:04.318Z,9.4
2023-04-24T05:45:55.763Z,9.8
2023-04-24T05:51:31.800Z,10.3
2023-04-24T05:57:23.444Z,10.9
2023-04-24T06:03:15.786Z,11.2
2023-04-24T06:09:10.108Z,11.9
2023-04-24T06:14:31.283Z,12.5
2023-04-24T06:20:23.788Z,12.9
2023-04-24T06:26:14.990Z,12.9
2023-04-24T06:31:51.704Z,12.8
2023-04-24T06:37:51.369Z,13
2023-04-24T06:43:27.854Z,13.3
2023-04-24T06:49:05.135Z,13.2
2023-04-24T06:54:56.515Z,14.1
2023-04-24T07:00:48.239Z,15
2023-04-24T07:06:43.814Z,15
2023-04-24T07:12:35.702Z,14.9
2023-04-24T07:18:13.153Z,14
2023-04-24T07:23:49.476Z,15.2
2023-04-24T07:29:27.608Z,14.8
2023-04-24T07:35:20.167Z,15.9
2023-04-24T07:41:11.922Z,16.3
2023-04-24T07:47:04.318Z,16.8
2023-04-24T07:53:10.058Z,17.3
2023-04-24T07:59:04.467Z,17.8
2023-04-24T08:05:00.321Z,18.2
2023-04-24T08:16:30.661Z,19.6
2023-04-24T08:22:23.145Z,18.9
2023-04-24T08:28:16.000Z,19.1
2023-04-24T08:33:53.697Z,19.4
2023-04-24T08:39:39.082Z,19.6
2023-04-24T08:45:30.782Z,20.3
2023-04-24T08:51:38.983Z,20.4
2023-04-24T08:57:30.370Z,18.9
2023-04-24T09:03:07.375Z,20.7
2023-04-24T09:09:01.821Z,19.6
2023-04-24T09:14:52.999Z,20.7
2023-04-24T09:20:29.632Z,19.1
2023-04-24T09:26:21.217Z,20.9
2023-04-24T09:31:58.678Z,21.6
2023-04-24T09:37:34.362Z,21.6
2023-04-24T09:43:26.024Z,21.3
2023-04-24T09:49:28.468Z,22.2
2023-04-24T09:55:23.458Z,22.3
2023-04-24T10:01:15.526Z,21.8
2023-04-24T10:07:08.846Z,20.8
2023-04-24T10:13:01.154Z,20.7
2023-04-24T10:18:53.433Z,22.4
2023-04-24T10:24:45.278Z,22.6
2023-04-24T10:30:36.632Z,23.8
2023-04-24T10:36:29.178Z,23.9
2023-04-24T10:42:20.854Z,24.4
2023-04-24T10:48:13.105Z,22.1
2023-04-24T10:54:04.616Z,21.9
2023-04-24T10:59:56.754Z,22.2
2023-04-24T11:05:35.530Z,21.6
2023-04-24T11:11:28.983Z,20.5
2023-04-24T11:17:06.027Z,19.9
